Time;durP1;ratioP1;P1;durP2;ratioP2;P2;SDS_P1;SDS_P2;PMS_P1;PMS_P2;Temp;Humidity;BMP_temperature;BMP_pressure;BME280_temperature;BME280_humidity;BME280_pressure;Samples;Min_cycle;Max_cycle;Signal;HPM_P1;HPM_P2
2022/03/29 00:01:38;;;;;;;23.60;9.28;;;;;;;6.02;38.97;101024.13;1703457;84;25827;-62
2022/03/29 00:04:06;;;;;;;26.35;9.90;;;;;;;5.96;39.62;101020.85;1734502;82;25764;-62
2022/03/29 00:06:32;;;;;;;26.00;10.08;;;;;;;5.93;39.31;101012.19;1703697;84;27433;-62
2022/03/29 00:08:59;;;;;;;28.55;10.82;;;;;;;5.87;39.69;101017.45;1734278;82;25758;-62
2022/03/29 00:11:26;;;;;;;21.00;8.78;;;;;;;5.80;39.62;101002.33;1734309;82;25719;-62
2022/03/29 00:13:53;;;;;;;25.15;10.53;;;;;;;5.73;39.38;101001.02;1743929;81;25820;-62
2022/03/29 00:16:20;;;;;;;24.92;10.63;;;;;;;5.67;39.33;101000.06;1782594;80;25720;-62
2022/03/29 00:18:47;;;;;;;26.27;10.10;;;;;;;5.57;39.35;100996.27;1786963;80;27642;-62
2022/03/29 00:21:14;;;;;;;26.93;9.58;;;;;;;5.50;39.79;100991.81;1787259;80;25692;-61
2022/03/29 00:23:41;;;;;;;27.17;10.30;;;;;;;5.41;39.81;100990.58;1786830;80;25698;-61
2022/03/29 00:26:08;;;;;;;21.77;9.55;;;;;;;5.37;39.75;100990.87;1756029;80;25809;-61
2022/03/29 00:28:35;;;;;;;20.65;9.50;;;;;;;5.36;39.48;100995.36;1750077;82;25763;-61
2022/03/29 00:31:01;;;;;;;21.62;9.35;;;;;;;5.37;39.57;100986.87;1749998;82;27381;-62
2022/03/29 00:33:28;;;;;;;18.92;9.15;;;;;;;5.35;39.86;100987.43;1749852;80;25767;-62
2022/03/29 00:35:55;;;;;;;21.70;9.68;;;;;;;5.33;40.02;100981.72;1749918;82;25664;-61
2022/03/29 00:38:21;;;;;;;24.02;10.13;;;;;;;5.32;39.75;100973.36;1749789;82;25831;-61
2022/03/29 00:40:48;;;;;;;23.02;10.48;;;;;;;5.27;39.95;100975.94;1750267;82;25849;-61
2022/03/29 00:43:15;;;;;;;19.77;9.98;;;;;;;5.20;40.27;100970.61;1749863;82;26956;-61
2022/03/29 00:45:43;;;;;;;29.75;10.82;;;;;;;5.11;40.24;100974.20;1749898;82;25772;-62
2022/03/29 00:48:11;;;;;;;25.62;10.20;;;;;;;5.01;40.44;100966.42;1749847;82;25779;-61
2022/03/29 00:50:38;;;;;;;22.75;10.45;;;;;;;4.95;41.09;100964.99;1749902;82;25790;-61
2022/03/29 00:53:06;;;;;;;25.37;10.55;;;;;;;4.90;41.38;100956.90;1749861;82;25841;-61
2022/03/29 00:55:33;;;;;;;24.10;9.48;;;;;;;4.88;41.21;100959.67;1750233;80;28426;-62
2022/03/29 00:58:03;;;;;;;19.70;9.33;;;;;;;4.85;41.54;100958.52;1749355;82;25716;-61
2022/03/29 01:00:32;;;;;;;24.60;10.00;;;;;;;4.84;41.05;100953.64;1750245;80;25735;-61
2022/03/29 01:03:03;;;;;;;22.85;9.00;;;;;;;4.82;41.02;100946.23;1750003;80;25829;-61
2022/03/29 01:05:29;;;;;;;26.60;9.20;;;;;;;4.80;41.28;100950.80;1750082;80;25852;-61
2022/03/29 01:07:57;;;;;;;26.25;9.55;;;;;;;4.77;41.10;100949.64;1749749;81;28209;-61
2022/03/29 01:10:25;;;;;;;23.73;9.08;;;;;;;4.77;41.10;100952.80;1749731;82;25458;-62
2022/03/29 01:12:54;;;;;;;25.10;8.88;;;;;;;4.72;41.05;100952.20;1750047;82;25457;-62
2022/03/29 01:15:26;;;;;;;18.35;8.55;;;;;;;4.62;41.03;100950.09;1749807;82;25778;-62
2022/03/29 01:17:54;;;;;;;24.43;9.48;;;;;;;4.53;40.86;100946.20;1750082;82;25503;-61
2022/03/29 01:20:29;;;;;;;22.05;8.40;;;;;;;4.46;40.96;100946.66;1749957;82;27608;-62
2022/03/29 01:22:59;;;;;;;20.32;9.05;;;;;;;4.43;40.87;100944.20;1750279;82;25722;-62
2022/03/29 01:25:37;;;;;;;26.73;9.80;;;;;;;4.43;40.95;100945.04;1751816;81;25809;-62
2022/03/29 01:28:05;;;;;;;27.00;8.70;;;;;;;4.39;40.80;100942.20;1737431;82;26695;-61
2022/03/29 01:30:34;;;;;;;26.55;8.28;;;;;;;4.34;41.00;100937.59;1737556;82;25838;-60
2022/03/29 01:33:04;;;;;;;30.27;8.45;;;;;;;4.27;40.99;100940.25;1737743;82;27419;-61
2022/03/29 01:35:32;;;;;;;22.17;9.08;;;;;;;4.21;41.18;100946.80;1737441;81;25494;-61
2022/03/29 01:37:59;;;;;;;25.10;7.47;;;;;;;4.19;41.21;100940.23;1737864;81;25497;-62
2022/03/29 01:40:27;;;;;;;27.87;9.03;;;;;;;4.20;41.13;100944.63;1737683;82;27876;-62
2022/03/29 01:43:00;;;;;;;35.00;8.68;;;;;;;4.20;41.18;100939.75;1737873;82;25873;-61
2022/03/29 01:45:32;;;;;;;26.93;8.53;;;;;;;4.19;41.64;100939.36;1737765;81;28252;-61
2022/03/29 01:48:00;;;;;;;22.32;8.23;;;;;;;4.19;41.33;100930.92;1737561;82;25994;-61
2022/03/29 01:50:28;;;;;;;31.00;8.63;;;;;;;4.17;41.61;100930.14;1737587;82;25786;-60
2022/03/29 01:52:55;;;;;;;23.70;7.75;;;;;;;4.13;41.59;100923.77;1737685;82;25646;-62
2022/03/29 01:55:23;;;;;;;30.57;8.45;;;;;;;4.07;41.82;100911.20;1737504;81;25726;-59
2022/03/29 01:57:53;;;;;;;14.60;7.28;;;;;;;4.02;41.82;100915.93;1731810;82;28095;-60
2022/03/29 02:00:33;;;;;;;30.20;8.93;;;;;;;3.98;41.91;100913.53;1707602;84;25822;-61
2022/03/29 02:03:05;;;;;;;23.98;7.45;;;;;;;3.95;42.12;100909.26;1707436;84;25805;-61
2022/03/29 02:05:33;;;;;;;31.45;8.30;;;;;;;3.94;42.25;100910.20;1707284;83;25798;-60
2022/03/29 02:08:02;;;;;;;27.77;8.05;;;;;;;3.93;41.99;100906.31;1707342;83;25799;-61
2022/03/29 02:10:29;;;;;;;21.23;7.95;;;;;;;3.91;42.23;100905.92;1707076;83;27538;-61
2022/03/29 02:12:56;;;;;;;21.90;8.78;;;;;;;3.89;42.54;100898.98;1707177;84;27267;-61
2022/03/29 02:15:23;;;;;;;23.77;8.05;;;;;;;3.88;42.49;100897.27;1707373;83;25647;-61
2022/03/29 02:17:50;;;;;;;27.55;8.30;;;;;;;3.89;42.16;100896.32;1707106;84;25711;-61
2022/03/29 02:20:21;;;;;;;21.25;9.23;;;;;;;3.89;42.36;100890.50;1707100;84;25708;-61
2022/03/29 02:22:49;;;;;;;25.88;7.85;;;;;;;3.89;42.18;100885.19;1707219;83;27479;-61
2022/03/29 02:25:16;;;;;;;25.40;8.55;;;;;;;3.89;42.61;100884.34;1720840;82;25839;-61
2022/03/29 02:27:45;;;;;;;19.98;7.90;;;;;;;3.86;42.30;100884.52;1731299;82;25467;-61
2022/03/29 02:30:16;;;;;;;22.32;7.87;;;;;;;3.84;42.36;100883.28;1750115;81;25974;-60
2022/03/29 02:32:44;;;;;;;23.90;7.00;;;;;;;3.81;42.63;100884.78;1768658;81;25773;-61
2022/03/29 02:35:10;;;;;;;15.95;6.67;;;;;;;3.77;42.54;100880.56;1734556;82;27386;-61
2022/03/29 02:37:38;;;;;;;29.45;7.47;;;;;;;3.76;42.70;100888.20;1750170;82;25719;-61
2022/03/29 02:40:08;;;;;;;19.92;8.23;;;;;;;3.73;42.88;100883.04;1768775;80;26317;-62
2022/03/29 02:42:47;;;;;;;20.40;7.70;;;;;;;3.69;42.68;100878.38;1734129;82;26378;-60
2022/03/29 02:45:17;;;;;;;20.35;6.97;;;;;;;3.63;42.92;100881.37;1750566;82;25761;-60
2022/03/29 02:47:47;;;;;;;17.10;7.15;;;;;;;3.62;43.11;100875.69;1768759;80;27609;-61
2022/03/29 02:50:15;;;;;;;34.00;7.17;;;;;;;3.56;43.09;100880.02;1734496;82;25820;-62
2022/03/29 02:52:52;;;;;;;34.18;7.62;;;;;;;3.50;43.30;100875.06;1750453;82;25715;-62
2022/03/29 02:55:22;;;;;;;27.62;7.03;;;;;;;3.49;42.99;100874.22;1768913;80;25825;-61
2022/03/29 02:57:49;;;;;;;25.27;7.37;;;;;;;3.49;42.90;100868.89;1734338;82;25769;-61
2022/03/29 03:00:17;;;;;;;21.93;6.58;;;;;;;3.51;42.87;100867.47;1714084;83;28484;-61
2022/03/29 03:02:46;;;;;;;22.35;7.33;;;;;;;3.53;43.26;100865.58;1713995;83;25858;-61
2022/03/29 03:05:13;;;;;;;25.65;7.40;;;;;;;3.53;43.05;100869.08;1714668;83;25653;-61
2022/03/29 03:07:42;;;;;;;30.62;9.13;;;;;;;3.52;43.31;100875.34;1714203;83;26438;-61
2022/03/29 03:10:11;;;;;;;22.48;7.70;;;;;;;3.54;43.26;100881.44;1714398;83;26143;-62
2022/03/29 03:12:42;;;;;;;27.80;9.08;;;;;;;3.55;43.49;100877.84;1714255;83;27474;-62
2022/03/29 03:15:12;;;;;;;20.52;6.67;;;;;;;3.53;43.20;100881.05;1713602;81;26185;-61
2022/03/29 03:17:39;;;;;;;35.08;7.62;;;;;;;3.52;43.20;100877.16;1714185;83;25795;-61
2022/03/29 03:20:09;;;;;;;26.95;7.87;;;;;;;3.49;43.39;100876.88;1714309;83;25810;-61
2022/03/29 03:22:37;;;;;;;24.63;7.53;;;;;;;3.50;43.61;100877.72;1714065;83;25851;-62
2022/03/29 03:25:07;;;;;;;23.65;7.72;;;;;;;3.48;43.53;100883.13;1714525;83;28088;-62
2022/03/29 03:27:35;;;;;;;37.08;8.23;;;;;;;3.47;43.91;100880.54;1717207;82;25693;-61
2022/03/29 03:30:08;;;;;;;29.98;7.37;;;;;;;3.44;43.67;100878.92;1719594;82;25713;-61
2022/03/29 03:32:34;;;;;;;26.57;7.87;;;;;;;3.45;43.61;100881.48;1750589;81;25789;-62
2022/03/29 03:35:01;;;;;;;21.90;7.28;;;;;;;3.42;43.75;100879.02;1751009;81;25714;-62
2022/03/29 03:37:28;;;;;;;24.27;7.85;;;;;;;3.42;43.75;100880.34;1750443;82;28549;-61
2022/03/29 03:39:55;;;;;;;28.62;6.95;;;;;;;3.41;43.63;100876.42;1750289;81;25450;-61
2022/03/29 03:42:23;;;;;;;33.02;9.10;;;;;;;3.38;44.06;100877.47;1750452;82;25746;-61
2022/03/29 03:44:49;;;;;;;32.10;8.03;;;;;;;3.34;43.88;100873.28;1750536;82;25939;-61
2022/03/29 03:47:16;;;;;;;40.90;10.00;;;;;;;3.32;44.02;100868.52;1750594;82;25468;-61
2022/03/29 03:49:43;;;;;;;37.03;9.08;;;;;;;3.29;44.10;100863.36;1750346;82;27479;-61
2022/03/29 03:52:10;;;;;;;31.50;8.18;;;;;;;3.27;44.05;100873.25;1750321;82;25720;-60
2022/03/29 03:54:37;;;;;;;31.85;8.33;;;;;;;3.23;44.24;100871.20;1750729;81;25813;-60
2022/03/29 03:57:05;;;;;;;38.30;7.87;;;;;;;3.21;44.02;100867.80;1745986;82;26173;-61
2022/03/29 03:59:33;;;;;;;24.02;7.78;;;;;;;3.18;43.98;100871.11;1751853;81;25767;-59
2022/03/29 04:02:01;;;;;;;27.00;7.22;;;;;;;3.15;43.93;100868.13;1716256;83;27538;-62
2022/03/29 04:04:28;;;;;;;28.07;7.00;;;;;;;3.15;43.95;100865.95;1716327;83;25736;-61
2022/03/29 04:06:56;;;;;;;28.87;9.45;;;;;;;3.15;44.06;100863.29;1716031;83;25740;-62
2022/03/29 04:09:24;;;;;;;46.45;8.50;;;;;;;3.12;44.21;100869.64;1716069;83;27931;-61
2022/03/29 04:11:51;;;;;;;52.48;7.78;;;;;;;3.15;44.14;100868.61;1716077;83;25766;-61
2022/03/29 04:14:18;;;;;;;36.10;7.70;;;;;;;3.13;44.40;100876.20;1716539;83;27593;-61
2022/03/29 04:16:45;;;;;;;29.57;7.55;;;;;;;3.16;44.11;100870.33;1716055;83;25836;-63
2022/03/29 04:19:12;;;;;;;32.75;7.47;;;;;;;3.18;44.02;100869.78;1715787;83;25761;-62
2022/03/29 04:21:39;;;;;;;38.00;7.92;;;;;;;3.20;43.81;100874.06;1703889;83;25736;-62
2022/03/29 04:24:07;;;;;;;26.62;6.62;;;;;;;3.20;43.82;100870.52;1737866;81;25831;-61
2022/03/29 04:26:34;;;;;;;16.80;6.85;;;;;;;3.21;43.78;100872.24;1716224;82;27464;-60
2022/03/29 04:29:01;;;;;;;34.05;7.62;;;;;;;3.20;43.94;100868.73;1740352;82;25773;-61
2022/03/29 04:31:28;;;;;;;22.67;6.72;;;;;;;3.21;44.21;100869.58;1744753;82;25754;-61
2022/03/29 04:33:55;;;;;;;40.48;11.50;;;;;;;3.20;44.16;100859.44;1744618;82;25781;-61
2022/03/29 04:36:23;;;;;;;31.25;9.93;;;;;;;3.23;44.60;100867.70;1744739;82;25776;-61
2022/03/29 04:38:50;;;;;;;31.93;8.55;;;;;;;3.23;45.03;100855.73;1744831;81;27656;-62
2022/03/29 04:41:17;;;;;;;31.93;7.50;;;;;;;3.25;45.20;100856.52;1740082;81;25768;-61
2022/03/29 04:43:44;;;;;;;26.50;7.78;;;;;;;3.31;45.24;100865.95;1739155;82;25529;-61
2022/03/29 04:46:11;;;;;;;21.50;7.15;;;;;;;3.35;45.37;100859.50;1739724;82;25935;-62
2022/03/29 04:48:38;;;;;;;42.80;8.58;;;;;;;3.40;45.22;100860.95;1739075;82;25827;-62
2022/03/29 04:51:04;;;;;;;34.80;9.35;;;;;;;3.45;45.46;100862.86;1739308;82;27630;-61
2022/03/29 04:53:31;;;;;;;43.68;9.85;;;;;;;3.49;45.63;100862.25;1734643;82;25698;-61
2022/03/29 04:55:58;;;;;;;34.53;8.70;;;;;;;3.55;45.47;100861.88;1731382;82;25751;-60
2022/03/29 04:58:25;;;;;;;39.27;9.30;;;;;;;3.61;45.35;100858.02;1724805;82;25813;-60
2022/03/29 05:00:53;;;;;;;41.40;11.05;;;;;;;3.67;45.16;100863.45;1739030;82;25711;-61
2022/03/29 05:03:20;;;;;;;36.58;9.08;;;;;;;3.75;45.01;100862.05;1739180;82;28605;-60
2022/03/29 05:05:47;;;;;;;27.52;7.97;;;;;;;3.82;44.74;100859.02;1739360;82;25706;-61
2022/03/29 05:08:13;;;;;;;31.37;7.47;;;;;;;3.90;44.63;100858.08;1739266;82;25891;-61
2022/03/29 05:13:42;;;;;;;56.65;13.35;;;;;;;4.02;45.07;100858.69;1722583;80;26029;-60
2022/03/29 05:16:08;;;;;;;117.72;32.93;;;;;;;4.10;45.46;100854.70;1740285;80;25786;-62
2022/03/29 05:18:35;;;;;;;100.60;26.87;;;;;;;4.19;45.19;100854.16;1716845;82;25910;-61
2022/03/29 05:21:02;;;;;;;68.47;22.20;;;;;;;4.28;45.12;100852.27;1739196;82;25772;-61
2022/03/29 05:23:29;;;;;;;75.55;18.85;;;;;;;4.38;45.14;100846.76;1739303;82;26857;-61
2022/03/29 05:25:57;;;;;;;62.80;12.30;;;;;;;4.50;45.20;100855.80;1739220;82;25501;-61
2022/03/29 05:28:23;;;;;;;50.95;13.93;;;;;;;4.61;45.20;100856.48;1720856;82;27492;-61
2022/03/29 05:30:51;;;;;;;50.73;10.95;;;;;;;4.76;45.33;100849.80;1689813;83;25728;-62
2022/03/29 05:33:18;;;;;;;63.65;11.80;;;;;;;4.88;44.99;100845.50;1689905;84;25762;-61
2022/03/29 05:35:46;;;;;;;53.60;10.98;;;;;;;4.98;44.77;100842.14;1689936;84;26994;-61
2022/03/29 05:38:13;;;;;;;61.50;10.58;;;;;;;5.07;44.41;100838.04;1721497;82;25844;-61
2022/03/29 05:40:40;;;;;;;49.77;10.43;;;;;;;5.18;44.71;100836.00;1731332;82;27464;-61
2022/03/29 05:43:12;;;;;;;61.58;10.03;;;;;;;5.31;44.68;100832.05;1731413;82;25695;-60
2022/03/29 05:45:44;;;;;;;41.88;10.28;;;;;;;5.42;44.18;100828.70;1731663;82;25866;-61
2022/03/29 05:50:56;;;;;;;45.78;9.98;;;;;;;5.64;43.66;100825.45;1724358;83;25724;-60
2022/03/29 05:53:23;;;;;;;66.28;12.13;;;;;;;5.75;43.61;100824.23;1724326;83;27658;-61
2022/03/29 05:55:50;;;;;;;40.48;11.05;;;;;;;5.80;43.40;100823.92;1724543;83;25840;-60
2022/03/29 05:58:17;;;;;;;43.87;9.50;;;;;;;5.92;43.33;100824.89;1727680;82;25540;-61
2022/03/29 06:00:45;;;;;;;51.68;10.18;;;;;;;6.04;43.25;100825.93;1719472;83;25883;-61
2022/03/29 06:03:12;;;;;;;48.20;9.98;;;;;;;6.19;43.00;100826.20;1719526;83;25855;-61
2022/03/29 06:05:42;;;;;;;37.38;10.48;;;;;;;6.33;42.67;100820.35;1719487;83;27480;-60
2022/03/29 06:08:08;;;;;;;41.58;12.30;;;;;;;6.45;42.49;100820.00;1722883;82;25776;-60
2022/03/29 06:10:35;;;;;;;53.40;13.10;;;;;;;6.52;42.14;100819.44;1724217;81;25836;-61
2022/03/29 06:13:01;;;;;;;60.15;13.70;;;;;;;6.64;41.88;100815.03;1724321;83;26472;-61
2022/03/29 06:15:30;;;;;;;48.50;11.25;;;;;;;6.79;41.78;100814.41;1722958;82;25486;-60
2022/03/29 06:17:57;;;;;;;47.15;11.65;;;;;;;6.93;41.43;100808.07;1738109;82;27481;-61
2022/03/29 06:20:25;;;;;;;55.67;12.15;;;;;;;7.08;41.31;100810.11;1738724;82;26833;-62
2022/03/29 06:22:52;;;;;;;47.27;10.80;;;;;;;7.20;41.10;100813.23;1688931;82;25506;-61
2022/03/29 06:25:19;;;;;;;44.65;11.45;;;;;;;7.35;40.95;100807.70;1700130;83;25715;-60
2022/03/29 06:27:47;;;;;;;46.35;10.58;;;;;;;7.48;40.62;100810.31;1723601;81;25490;-59
2022/03/29 06:30:14;;;;;;;36.63;10.65;;;;;;;7.57;40.61;100812.30;1750054;82;27473;-61
2022/03/29 06:32:48;;;;;;;49.05;9.68;;;;;;;7.69;40.10;100806.48;1749930;82;25497;-62
2022/03/29 06:35:21;;;;;;;29.77;9.78;;;;;;;7.80;39.70;100798.97;1749617;81;25492;-61
2022/03/29 06:37:56;;;;;;;41.05;11.45;;;;;;;7.92;39.56;100795.36;1749997;79;25782;-60
2022/03/29 06:40:26;;;;;;;52.25;11.08;;;;;;;8.05;39.28;100798.44;1749730;82;25830;-60
2022/03/29 06:42:58;;;;;;;33.48;10.00;;;;;;;8.19;38.98;100796.02;1752673;81;27300;-61
2022/03/29 06:45:26;;;;;;;39.95;9.45;;;;;;;8.25;38.88;100792.85;1740629;82;25843;-61
2022/03/29 06:47:54;;;;;;;27.67;9.33;;;;;;;8.38;38.91;100791.39;1739206;82;25826;-62
2022/03/29 06:50:21;;;;;;;47.38;10.45;;;;;;;8.50;38.55;100789.13;1739420;82;26535;-62
2022/03/29 06:52:48;;;;;;;45.10;12.20;;;;;;;8.61;38.53;100787.75;1739237;82;25731;-61
2022/03/29 06:55:18;;;;;;;52.53;14.23;;;;;;;8.76;38.50;100784.83;1743354;82;28190;-61
2022/03/29 06:57:45;;;;;;;59.65;14.10;;;;;;;8.88;38.23;100789.18;1723010;82;25702;-61
2022/03/29 07:00:14;;;;;;;46.90;14.40;;;;;;;9.01;38.10;100777.46;1713370;83;25764;-61
2022/03/29 07:02:41;;;;;;;55.45;14.78;;;;;;;9.10;37.77;100779.39;1711022;83;25834;-62
2022/03/29 07:05:10;;;;;;;61.37;14.25;;;;;;;9.17;37.80;100778.41;1750190;82;25431;-61
2022/03/29 07:07:37;;;;;;;49.65;12.53;;;;;;;9.24;37.46;100772.37;1750304;82;27407;-62
2022/03/29 07:13:01;;;;;;;63.95;14.83;;;;;;;9.41;36.69;100768.80;1719705;81;25747;-61
2022/03/29 07:15:28;;;;;;;55.33;19.48;;;;;;;9.48;36.86;100761.05;1718622;83;25828;-60
2022/03/29 07:17:56;;;;;;;55.15;17.52;;;;;;;9.61;36.89;100759.05;1718796;83;25709;-61
2022/03/29 07:20:23;;;;;;;57.62;18.45;;;;;;;9.75;36.67;100762.37;1718390;82;27438;-61
2022/03/29 07:22:51;;;;;;;78.05;19.02;;;;;;;9.81;36.57;100754.66;1718569;83;25650;-60
2022/03/29 07:25:21;;;;;;;58.30;16.55;;;;;;;9.90;36.53;100754.37;1733292;82;25810;-62
2022/03/29 07:27:49;;;;;;;56.63;17.60;;;;;;;10.06;36.47;100755.22;1751978;80;26551;-61
2022/03/29 07:30:17;;;;;;;54.88;16.05;;;;;;;10.19;36.19;100749.62;1739984;82;25786;-61
2022/03/29 07:32:51;;;;;;;60.17;14.98;;;;;;;10.32;36.21;100756.11;1720735;81;27433;-62
2022/03/29 07:35:22;;;;;;;47.60;15.53;;;;;;;10.46;35.88;100748.20;1704333;84;25766;-62
2022/03/29 07:37:49;;;;;;;57.67;15.65;;;;;;;10.57;35.61;100743.23;1704409;84;25830;-61
2022/03/29 07:40:20;;;;;;;52.85;15.83;;;;;;;10.66;35.68;100738.37;1680349;85;25890;-61
2022/03/29 07:42:49;;;;;;;48.33;15.08;;;;;;;10.77;35.52;100743.62;1704259;83;25933;-61
2022/03/29 07:45:16;;;;;;;54.53;14.38;;;;;;;10.93;35.57;100744.95;1728558;82;27618;-60
2022/03/29 07:47:44;;;;;;;46.77;13.55;;;;;;;11.08;35.03;100737.30;1743165;81;26094;-63
2022/03/29 07:50:12;;;;;;;45.15;14.85;;;;;;;11.17;34.79;100739.14;1743128;82;25641;-62
2022/03/29 07:52:42;;;;;;;45.20;13.98;;;;;;;11.31;34.75;100739.73;1737345;82;26368;-61
2022/03/29 07:55:12;;;;;;;55.52;15.70;;;;;;;11.38;34.58;100730.95;1749916;82;25767;-61
2022/03/29 07:57:40;;;;;;;48.40;14.58;;;;;;;11.52;34.46;100726.94;1750813;81;27722;-62
2022/03/29 08:02:59;;;;;;;41.48;14.03;;;;;;;11.72;34.00;100726.44;1749649;82;25781;-61
2022/03/29 08:05:26;;;;;;;50.98;15.80;;;;;;;11.89;33.97;100723.98;1756114;81;25917;-62
2022/03/29 08:07:53;;;;;;;44.95;14.25;;;;;;;12.07;33.77;100721.90;1757653;81;25786;-60
2022/03/29 08:10:20;;;;;;;40.50;14.63;;;;;;;12.20;33.68;100723.27;1754772;81;28253;-61
2022/03/29 08:12:47;;;;;;;52.10;16.45;;;;;;;12.40;33.55;100720.97;1752170;81;25758;-62
2022/03/29 08:15:14;;;;;;;49.77;15.10;;;;;;;12.58;33.38;100718.34;1750072;82;25659;-61
2022/03/29 08:17:40;;;;;;;56.48;16.12;;;;;;;12.73;33.10;100707.38;1750278;82;25845;-62
2022/03/29 08:20:10;;;;;;;51.85;15.35;;;;;;;12.85;33.01;100705.30;1750161;81;25932;-63
2022/03/29 08:22:36;;;;;;;43.95;14.10;;;;;;;12.97;32.64;100700.03;1750233;82;27419;-63
2022/03/29 08:25:05;;;;;;;46.40;15.58;;;;;;;13.10;32.44;100696.95;1740489;81;25837;-62
2022/03/29 08:27:31;;;;;;;50.08;16.17;;;;;;;13.27;32.34;100688.98;1724620;82;25802;-63
2022/03/29 08:29:59;;;;;;;51.18;15.78;;;;;;;13.44;31.72;100696.25;1734245;81;25779;-61
2022/03/29 08:32:27;;;;;;;44.70;16.15;;;;;;;13.56;31.82;100691.95;1751535;81;25812;-62
2022/03/29 08:34:53;;;;;;;42.33;15.13;;;;;;;13.67;31.41;100683.56;1751030;81;27516;-63
2022/03/29 08:37:21;;;;;;;46.85;15.05;;;;;;;13.80;31.48;100681.81;1751884;81;25478;-63
2022/03/29 08:39:48;;;;;;;43.85;14.87;;;;;;;14.05;31.54;100688.19;1751228;81;26249;-62
2022/03/29 08:42:18;;;;;;;42.25;15.78;;;;;;;14.30;31.41;100686.11;1751015;81;25959;-62
2022/03/29 08:44:44;;;;;;;57.45;15.43;;;;;;;14.54;31.01;100681.30;1751279;81;25503;-62
2022/03/29 08:47:15;;;;;;;52.03;15.98;;;;;;;14.78;30.91;100675.62;1762748;81;27476;-62
2022/03/29 08:49:45;;;;;;;42.25;15.58;;;;;;;15.01;30.63;100676.70;1766639;81;25516;-62
2022/03/29 08:52:12;;;;;;;48.85;15.48;;;;;;;15.23;30.11;100669.42;1766898;80;25945;-62
2022/03/29 08:54:39;;;;;;;42.08;13.88;;;;;;;15.36;30.06;100661.61;1766759;81;27889;-60
2022/03/29 08:57:06;;;;;;;46.15;15.13;;;;;;;15.53;29.47;100664.30;1755868;81;25951;-62
2022/03/29 08:59:33;;;;;;;56.00;16.48;;;;;;;15.64;29.75;100662.06;1751041;81;27477;-61
2022/03/29 09:02:11;;;;;;;58.28;17.57;;;;;;;15.79;29.59;100650.53;1750919;81;25814;-62
2022/03/29 09:04:38;;;;;;;54.95;18.10;;;;;;;15.98;29.51;100648.48;1750808;81;25766;-62
2022/03/29 09:07:05;;;;;;;50.40;17.02;;;;;;;16.14;29.31;100644.86;1761131;81;25800;-63
2022/03/29 09:09:36;;;;;;;56.25;17.62;;;;;;;16.26;28.96;100642.94;1766759;80;25781;-63
2022/03/29 09:12:21;;;;;;;55.52;16.25;;;;;;;16.41;28.91;100636.75;1766638;80;27450;-62
2022/03/29 09:14:58;;;;;;;47.05;17.48;;;;;;;16.56;28.67;100631.41;1766734;81;25809;-63
2022/03/29 09:17:30;;;;;;;56.35;17.27;;;;;;;16.74;28.59;100628.39;1748720;82;25741;-63
2022/03/29 09:19:59;;;;;;;52.48;16.07;;;;;;;16.91;28.36;100631.84;1710808;82;25839;-62
2022/03/29 09:22:42;;;;;;;40.63;16.12;;;;;;;17.10;27.97;100619.66;1710573;83;25811;-62
2022/03/29 09:25:22;;;;;;;35.65;15.45;;;;;;;17.21;27.75;100620.58;1727683;82;27442;-61
2022/03/29 09:27:57;;;;;;;49.08;15.43;;;;;;;17.40;27.81;100613.43;1727458;82;25689;-62
2022/03/29 09:30:40;;;;;;;48.30;15.88;;;;;;;17.57;27.20;100599.16;1738629;81;26323;-61
2022/03/29 09:33:12;;;;;;;50.35;16.57;;;;;;;17.75;27.14;100591.48;1739832;82;25700;-60
2022/03/29 09:35:59;;;;;;;47.23;16.50;;;;;;;17.96;27.15;100588.02;1714971;82;25666;-61
2022/03/29 09:38:32;;;;;;;58.10;16.55;;;;;;;18.21;27.01;100588.22;1714883;83;27435;-61
2022/03/29 09:41:00;;;;;;;49.88;16.10;;;;;;;18.46;26.26;100580.02;1696801;84;25778;-61
2022/03/29 09:44:10;;;;;;;42.80;16.57;;;;;;;18.59;26.11;100581.21;1732523;81;25909;-62
2022/03/29 09:46:59;;;;;;;47.27;16.00;;;;;;;18.81;25.88;100567.56;1747629;82;26458;-61
2022/03/29 09:49:27;;;;;;;43.80;15.70;;;;;;;19.01;25.52;100560.95;1729406;82;25696;-62
2022/03/29 09:52:10;;;;;;;46.60;15.93;;;;;;;19.17;25.70;100555.73;1750517;81;27464;-61
2022/03/29 09:54:38;;;;;;;59.37;16.27;;;;;;;19.35;25.14;100546.53;1742398;82;26261;-61
2022/03/29 09:57:05;;;;;;;52.73;16.75;;;;;;;19.39;24.51;100530.09;1749853;82;25774;-63
2022/03/29 09:59:32;;;;;;;44.70;14.53;;;;;;;19.53;24.19;100534.25;1755218;80;26483;-62
2022/03/29 10:02:00;;;;;;;46.88;15.50;;;;;;;19.60;24.24;100538.39;1719923;82;25771;-64
2022/03/29 10:04:29;;;;;;;45.00;14.87;;;;;;;19.66;24.13;100538.44;1749845;82;27628;-61
2022/03/29 10:07:03;;;;;;;42.00;15.90;;;;;;;19.72;23.81;100524.50;1750794;81;25779;-61
2022/03/29 10:09:33;;;;;;;44.35;14.68;;;;;;;19.73;23.87;100526.16;1754539;81;25473;-61
2022/03/29 10:12:04;;;;;;;42.33;15.05;;;;;;;19.79;24.00;100515.82;1751498;81;25798;-63
2022/03/29 10:14:36;;;;;;;45.63;15.40;;;;;;;19.89;23.63;100510.53;1749881;82;26444;-62
2022/03/29 10:17:06;;;;;;;47.43;14.78;;;;;;;19.95;23.60;100502.34;1750235;82;28455;-63
2022/03/29 10:19:34;;;;;;;40.38;14.55;;;;;;;19.99;23.60;100496.80;1750157;82;25830;-62
2022/03/29 10:22:04;;;;;;;53.10;14.83;;;;;;;20.09;23.63;100488.75;1753595;81;25783;-62
2022/03/29 10:24:31;;;;;;;37.05;14.35;;;;;;;20.22;23.59;100481.94;1758690;80;25807;-61
2022/03/29 10:27:00;;;;;;;44.67;15.35;;;;;;;20.30;23.06;100479.54;1739869;82;26379;-62
2022/03/29 10:29:30;;;;;;;51.98;13.62;;;;;;;20.38;22.90;100470.31;1739560;80;28397;-63
2022/03/29 10:32:05;;;;;;;36.03;13.55;;;;;;;20.46;22.59;100469.58;1714104;83;26499;-62
2022/03/29 10:34:42;;;;;;;36.68;13.45;;;;;;;20.56;22.17;100460.98;1721547;82;25763;-62
2022/03/29 10:37:19;;;;;;;41.95;13.18;;;;;;;20.61;22.28;100454.88;1680201;85;25808;-64
2022/03/29 10:40:02;;;;;;;38.98;12.70;;;;;;;20.73;22.30;100452.34;1684112;85;25769;-62
2022/03/29 10:42:44;;;;;;;33.67;12.73;;;;;;;20.83;21.85;100446.47;1713630;83;28544;-61
2022/03/29 10:45:23;;;;;;;30.95;13.03;;;;;;;20.86;21.77;100437.31;1734502;82;25799;-63
2022/03/29 10:48:11;;;;;;;33.70;10.65;;;;;;;20.95;21.41;100431.11;1734312;82;25689;-62
2022/03/29 10:50:57;;;;;;;14.35;7.95;;;;;;;20.98;20.98;100429.84;1734629;82;25964;-62
2022/03/29 10:53:34;;;;;;;28.57;9.58;;;;;;;21.05;20.36;100423.82;1734430;82;25494;-61
2022/03/29 10:56:20;;;;;;;23.00;8.88;;;;;;;21.07;20.16;100416.25;1734408;82;27435;-62
2022/03/29 10:59:11;;;;;;;16.60;8.45;;;;;;;21.11;20.08;100412.05;1734155;82;25791;-62
2022/03/29 11:01:40;;;;;;;28.32;10.28;;;;;;;21.14;19.54;100407.49;1734576;81;25524;-62
2022/03/29 11:04:20;;;;;;;22.32;10.23;;;;;;;21.10;19.73;100400.79;1733787;82;25784;-63
2022/03/29 11:07:14;;;;;;;22.55;9.78;;;;;;;21.21;19.50;100397.91;1729162;82;26729;-61
2022/03/29 11:09:40;;;;;;;22.17;10.20;;;;;;;21.22;19.56;100396.31;1713914;81;27463;-62
2022/03/29 11:12:38;;;;;;;24.02;11.15;;;;;;;21.25;19.15;100388.19;1714052;83;25475;-62
2022/03/29 11:15:32;;;;;;;24.12;10.35;;;;;;;21.19;19.60;100377.61;1714150;83;25718;-62
2022/03/29 11:17:57;;;;;;;23.62;10.18;;;;;;;21.28;19.38;100377.38;1690343;83;26700;-61
2022/03/29 11:20:39;;;;;;;26.00;10.98;;;;;;;21.29;19.20;100366.74;1734649;82;25485;-62
2022/03/29 11:23:09;;;;;;;23.80;9.58;;;;;;;21.25;19.31;100364.94;1719112;82;27476;-63
2022/03/29 11:25:40;;;;;;;17.73;8.45;;;;;;;21.25;19.23;100367.67;1729038;82;25748;-62
2022/03/29 11:28:11;;;;;;;18.00;9.23;;;;;;;21.19;19.22;100353.00;1742578;82;25839;-62
2022/03/29 11:30:39;;;;;;;20.50;9.08;;;;;;;21.17;19.45;100355.11;1737836;82;25784;-62
2022/03/29 11:33:08;;;;;;;21.87;9.85;;;;;;;21.23;19.53;100343.28;1722031;83;25816;-62
2022/03/29 11:35:38;;;;;;;25.10;9.58;;;;;;;21.36;19.40;100349.77;1750167;82;27409;-61
2022/03/29 11:38:16;;;;;;;23.90;9.78;;;;;;;21.38;19.32;100351.22;1750453;81;25715;-62
2022/03/29 11:40:44;;;;;;;24.95;9.70;;;;;;;21.48;19.31;100343.06;1758220;80;25816;-61